Time;durP1;ratioP1;P1;durP2;ratioP2;P2;SDS_P1;SDS_P2;PMS_P1;PMS_P2;Temp;Humidity;BMP_temperature;BMP_pressure;BME280_temperature;BME280_humidity;BME280_pressure;Samples;Min_cycle;Max_cycle;Signal;HPM_P1;HPM_P2
2021/06/18 00:06:35;;;;;;;0.90;0.90;;;22.60;99.90;;;;;;20925866;22;20233;-76
2021/06/18 00:16:38;;;;;;;2.53;0.83;;;22.60;99.90;;;;;;20893151;28;20690;-77
2021/06/18 00:26:43;;;;;;;4.43;1.43;;;22.40;99.90;;;;;;20891726;28;20233;-75
2021/06/18 00:36:47;;;;;;;1.97;0.57;;;22.30;99.90;;;;;;20909200;28;20275;-75
2021/06/18 00:46:52;;;;;;;1.47;0.97;;;22.40;99.90;;;;;;20908578;28;20289;-74
2021/06/18 00:56:56;;;;;;;0.63;0.47;;;22.40;99.90;;;;;;20907483;28;20304;-74
2021/06/18 01:07:06;;;;;;;0.67;0.57;;;22.40;99.90;;;;;;20922661;22;20356;-70
2021/06/18 01:17:16;;;;;;;0.57;0.40;;;22.50;99.90;;;;;;20923862;28;20648;-70
2021/06/18 01:27:36;;;;;;;0.50;0.50;;;22.40;99.90;;;;;;20907018;28;20220;-69
2021/06/18 01:37:43;;;;;;;3.07;0.67;;;22.30;99.90;;;;;;20886793;28;20652;-70
2021/06/18 01:47:48;;;;;;;7.60;0.93;;;22.30;99.90;;;;;;20904681;28;20575;-71
2021/06/18 01:57:55;;;;;;;0.60;0.53;;;22.10;99.90;;;;;;20904331;28;20259;-70
2021/06/18 02:08:00;;;;;;;4.33;1.10;;;22.10;99.90;;;;;;20901641;28;20225;-72
2021/06/18 02:18:07;;;;;;;1.10;0.47;;;22.00;99.90;;;;;;20901652;28;20217;-69
2021/06/18 02:28:11;;;;;;;0.20;0.13;;;22.00;99.90;;;;;;20901463;28;20201;-69
2021/06/18 02:38:17;;;;;;;3.90;1.37;;;22.00;99.90;;;;;;20899787;28;20312;-70
2021/06/18 02:48:28;;;;;;;2.37;1.43;;;22.10;99.90;;;;;;20899635;28;20243;-70
2021/06/18 02:58:40;;;;;;;0.83;0.33;;;22.00;99.90;;;;;;20899372;28;20642;-70
2021/06/18 03:08:50;;;;;;;0.60;0.60;;;22.10;99.90;;;;;;20899593;28;20233;-71
2021/06/18 03:18:58;;;;;;;0.90;0.80;;;22.00;99.90;;;;;;20898131;28;20224;-70
2021/06/18 03:29:02;;;;;;;1.47;0.90;;;22.00;99.90;;;;;;20826101;28;20577;-70
2021/06/18 03:39:09;;;;;;;1.33;0.80;;;21.70;99.90;;;;;;20896269;28;20589;-69
2021/06/18 03:49:14;;;;;;;0.83;0.77;;;21.70;99.90;;;;;;20912536;28;20198;-70
2021/06/18 03:59:22;;;;;;;0.90;0.67;;;21.20;99.90;;;;;;20912248;28;20229;-70
2021/06/18 04:09:26;;;;;;;0.77;0.77;;;21.20;99.90;;;;;;20911660;28;20201;-70
2021/06/18 04:19:32;;;;;;;1.30;0.63;;;21.30;99.90;;;;;;20910736;28;20249;-70
2021/06/18 04:29:36;;;;;;;8.40;1.17;;;21.30;99.90;;;;;;20909917;28;20197;-71
2021/06/18 04:39:41;;;;;;;0.43;0.43;;;21.30;99.90;;;;;;20908371;28;20229;-70
2021/06/18 04:49:44;;;;;;;0.80;0.80;;;21.40;99.90;;;;;;20912235;28;20206;-70
2021/06/18 04:59:50;;;;;;;1.17;1.10;;;21.40;99.90;;;;;;20896376;28;20320;-69
2021/06/18 05:09:56;;;;;;;1.17;1.07;;;21.40;99.90;;;;;;20906367;28;20200;-69
2021/06/18 05:20:01;;;;;;;0.60;0.50;;;21.60;99.90;;;;;;20905773;28;20226;-66
2021/06/18 05:30:07;;;;;;;2.67;1.30;;;21.80;99.90;;;;;;20905273;28;20204;-69
2021/06/18 05:40:28;;;;;;;1.23;1.13;;;22.10;99.90;;;;;;20904872;28;20308;-69
2021/06/18 05:50:32;;;;;;;1.90;1.58;;;22.60;99.90;;;;;;20905024;28;20186;-71
2021/06/18 06:00:37;;;;;;;2.03;1.83;;;23.10;99.90;;;;;;20913526;28;20565;-70
2021/06/18 06:10:49;;;;;;;1.85;1.23;;;23.30;99.90;;;;;;20901393;28;20514;-71
2021/06/18 06:20:55;;;;;;;1.02;0.93;;;23.50;99.90;;;;;;20900377;28;20224;-70
2021/06/18 06:30:59;;;;;;;5.97;1.48;;;24.10;99.90;;;;;;20898183;28;20368;-70
2021/06/18 06:41:04;;;;;;;3.15;1.25;;;24.40;99.90;;;;;;20896094;28;20229;-69
2021/06/18 06:51:08;;;;;;;2.40;1.13;;;24.40;99.90;;;;;;20898481;28;20272;-67
2021/06/18 07:01:13;;;;;;;7.13;1.45;;;25.10;99.90;;;;;;20905983;28;20233;-68
2021/06/18 07:11:17;;;;;;;1.55;1.45;;;24.80;99.90;;;;;;20876503;28;20271;-70
2021/06/18 07:21:22;;;;;;;4.03;1.13;;;25.20;99.90;;;;;;20913771;28;20342;-70
2021/06/18 07:31:26;;;;;;;0.80;0.73;;;25.60;99.90;;;;;;20913292;28;20208;-70
2021/06/18 07:41:31;;;;;;;4.43;0.85;;;25.50;99.90;;;;;;20891084;28;20228;-69
2021/06/18 07:51:35;;;;;;;1.52;1.10;;;25.20;99.90;;;;;;20829508;28;20201;-69
2021/06/18 08:01:40;;;;;;;3.88;2.22;;;25.60;99.90;;;;;;20830791;28;20230;-68
2021/06/18 08:11:44;;;;;;;0.77;0.75;;;25.60;99.90;;;;;;20826615;28;20733;-71
2021/06/18 08:21:49;;;;;;;3.67;1.33;;;25.50;99.90;;;;;;20849653;28;20316;-71
2021/06/18 08:31:52;;;;;;;1.50;1.40;;;25.70;99.90;;;;;;20902512;28;20666;-71
2021/06/18 08:41:58;;;;;;;2.80;0.82;;;25.50;99.90;;;;;;20909854;28;20228;-71
2021/06/18 08:52:02;;;;;;;1.75;1.00;;;26.10;99.90;;;;;;20890176;28;20189;-69
2021/06/18 09:02:08;;;;;;;1.60;1.33;;;25.90;99.90;;;;;;20906998;28;20221;-71
2021/06/18 09:12:12;;;;;;;5.95;1.73;;;25.60;99.90;;;;;;20914385;28;20248;-71
2021/06/18 09:22:20;;;;;;;1.08;1.02;;;25.90;99.90;;;;;;20902636;28;20329;-72
2021/06/18 09:32:23;;;;;;;2.25;0.93;;;25.90;99.90;;;;;;20904597;28;20236;-73
2021/06/18 09:42:28;;;;;;;16.63;1.17;;;25.80;99.90;;;;;;20888339;28;20762;-69
2021/06/18 09:52:33;;;;;;;4.03;1.98;;;26.20;99.90;;;;;;20915846;28;20290;-70
2021/06/18 10:02:43;;;;;;;3.85;3.13;;;26.40;99.90;;;;;;20902763;28;20248;-69
2021/06/18 10:12:48;;;;;;;1.65;1.50;;;26.60;99.90;;;;;;20903256;28;20254;-70
2021/06/18 10:22:57;;;;;;;6.82;2.95;;;26.40;99.90;;;;;;20902529;28;20267;-69
2021/06/18 10:33:01;;;;;;;4.32;1.65;;;27.00;99.90;;;;;;20900850;28;20284;-70
2021/06/18 10:43:15;;;;;;;2.13;1.60;;;27.20;99.90;;;;;;20901449;28;20702;-72
2021/06/18 10:53:21;;;;;;;9.98;1.58;;;27.20;99.90;;;;;;20882122;28;20689;-71
2021/06/18 11:03:59;;;;;;;3.92;2.60;;;27.80;99.90;;;;;;20920708;28;20241;-71
2021/06/18 11:14:04;;;;;;;2.15;1.42;;;28.40;99.90;;;;;;20898394;28;20284;-71
2021/06/18 11:24:09;;;;;;;4.57;2.10;;;28.30;99.90;;;;;;20896824;28;20762;-69
2021/06/18 11:34:29;;;;;;;2.50;2.13;;;29.30;99.90;;;;;;20898939;28;20213;-72
2021/06/18 11:44:35;;;;;;;9.70;2.47;;;30.10;99.90;;;;;;20899091;28;20243;-72
2021/06/18 11:54:41;;;;;;;2.50;1.23;;;30.20;99.90;;;;;;20914140;28;20202;-68
2021/06/18 12:04:47;;;;;;;3.70;1.67;;;28.40;99.90;;;;;;20911742;28;20243;-72
2021/06/18 12:14:55;;;;;;;3.15;1.48;;;28.30;99.90;;;;;;20911980;28;20190;-72
2021/06/18 12:25:01;;;;;;;1.52;1.38;;;29.30;99.90;;;;;;20910043;28;20348;-72
2021/06/18 12:35:06;;;;;;;1.52;1.42;;;29.50;99.90;;;;;;20916705;28;20239;-68
2021/06/18 12:45:15;;;;;;;2.28;1.88;;;30.40;99.90;;;;;;20912527;28;20312;-71
2021/06/18 12:55:26;;;;;;;5.70;2.80;;;31.50;99.90;;;;;;20912512;28;20259;-71
2021/06/18 13:05:31;;;;;;;1.77;1.60;;;31.50;99.90;;;;;;20903111;28;20244;-72
2021/06/18 13:15:35;;;;;;;4.40;1.77;;;31.70;99.90;;;;;;20904958;28;20654;-71
2021/06/18 13:25:40;;;;;;;9.27;2.50;;;32.20;99.90;;;;;;20906559;28;20256;-69
2021/06/18 13:35:44;;;;;;;2.22;1.10;;;32.30;99.90;;;;;;20905498;28;20205;-71
2021/06/18 13:45:49;;;;;;;2.20;2.00;;;32.20;99.90;;;;;;20905369;28;20348;-73
2021/06/18 13:55:55;;;;;;;3.50;2.35;;;32.20;99.90;;;;;;20902660;28;20217;-73
2021/06/18 14:06:00;;;;;;;2.08;1.88;;;31.30;99.90;;;;;;20885332;28;20236;-73
2021/06/18 14:16:03;;;;;;;2.15;1.75;;;32.10;99.90;;;;;;20903711;28;20212;-70
2021/06/18 14:26:09;;;;;;;2.10;1.48;;;31.40;99.90;;;;;;20902220;28;20225;-73
2021/06/18 14:36:14;;;;;;;8.55;1.65;;;31.90;99.90;;;;;;20903417;28;20215;-72
2021/06/18 14:46:19;;;;;;;5.60;2.13;;;32.10;99.90;;;;;;20919885;28;20225;-71
2021/06/18 14:56:23;;;;;;;1.58;1.33;;;31.70;99.90;;;;;;20900600;28;20201;-71
2021/06/18 15:06:29;;;;;;;2.95;1.73;;;31.60;99.90;;;;;;20900288;28;20233;-71
2021/06/18 15:16:32;;;;;;;1.63;1.50;;;31.90;99.90;;;;;;20898621;28;20232;-72
2021/06/18 15:26:38;;;;;;;3.38;1.77;;;32.00;99.90;;;;;;20895253;28;20228;-72
2021/06/18 15:36:42;;;;;;;4.80;2.78;;;32.30;99.90;;;;;;20913687;28;20197;-73
2021/06/18 15:46:48;;;;;;;3.03;2.13;;;31.70;99.90;;;;;;20912998;28;20298;-73
2021/06/18 15:56:51;;;;;;;8.82;2.03;;;31.80;99.90;;;;;;20924580;28;20238;-70
2021/06/18 16:06:56;;;;;;;5.78;2.85;;;32.00;99.90;;;;;;20940189;28;20240;-70
2021/06/18 16:17:02;;;;;;;4.18;2.22;;;32.30;99.90;;;;;;20898094;28;20194;-72
2021/06/18 16:27:10;;;;;;;2.72;1.77;;;32.50;99.90;;;;;;20898714;28;20306;-72
2021/06/18 16:37:13;;;;;;;1.35;1.25;;;32.00;99.90;;;;;;20911049;28;20243;-71
2021/06/18 16:47:18;;;;;;;2.35;1.92;;;31.90;99.90;;;;;;20861753;28;20294;-71
2021/06/18 16:57:22;;;;;;;1.95;1.55;;;31.10;99.90;;;;;;20885715;28;20288;-73
2021/06/18 17:07:29;;;;;;;2.75;2.22;;;31.40;99.90;;;;;;20922005;28;20229;-70
2021/06/18 17:17:34;;;;;;;17.33;2.03;;;31.10;99.90;;;;;;20895793;28;20665;-72
2021/06/18 17:27:39;;;;;;;8.93;2.10;;;30.70;99.90;;;;;;20894628;28;20263;-70
2021/06/18 17:37:42;;;;;;;3.95;2.67;;;30.60;99.90;;;;;;20886363;28;20193;-71
2021/06/18 17:47:48;;;;;;;3.03;2.40;;;29.70;99.90;;;;;;20907286;28;20693;-71
2021/06/18 17:57:52;;;;;;;1.92;1.33;;;29.60;99.90;;;;;;20905578;28;20203;-74
2021/06/18 18:07:57;;;;;;;1.33;0.98;;;29.10;99.90;;;;;;20902458;28;20321;-72
2021/06/18 18:18:01;;;;;;;1.77;1.45;;;28.20;99.90;;;;;;20902315;28;20625;-70
2021/06/18 18:28:06;;;;;;;1.45;1.35;;;27.60;99.90;;;;;;20883262;28;20730;-68
2021/06/18 18:38:10;;;;;;;2.88;1.55;;;27.20;99.90;;;;;;20899724;28;20548;-69
2021/06/18 18:48:15;;;;;;;3.83;1.70;;;26.70;99.90;;;;;;20899966;28;20221;-68
2021/06/18 18:58:22;;;;;;;1.73;1.63;;;26.30;99.90;;;;;;20898376;28;20194;-70
2021/06/18 19:08:27;;;;;;;1.00;1.00;;;26.20;99.90;;;;;;20899706;28;20401;-70
2021/06/18 19:18:31;;;;;;;8.38;1.73;;;25.90;99.90;;;;;;20898814;28;20666;-72
2021/06/18 19:28:36;;;;;;;2.55;1.77;;;25.80;99.90;;;;;;20895107;28;20228;-69
2021/06/18 19:38:40;;;;;;;1.50;1.40;;;25.60;99.90;;;;;;20880732;28;20201;-69
2021/06/18 19:48:45;;;;;;;1.58;1.48;;;25.30;99.90;;;;;;20898252;28;20233;-69
2021/06/18 19:58:49;;;;;;;1.83;1.70;;;25.40;99.90;;;;;;20898959;28;20267;-69
2021/06/18 20:08:55;;;;;;;1.98;1.65;;;25.40;99.90;;;;;;20903672;28;20236;-69
2021/06/18 20:18:59;;;;;;;1.20;1.10;;;25.30;99.90;;;;;;20911144;28;20300;-69
2021/06/18 20:29:05;;;;;;;4.55;2.47;;;25.30;99.90;;;;;;20809426;28;20253;-69
2021/06/18 20:39:10;;;;;;;3.58;1.75;;;25.10;99.90;;;;;;20892911;28;20191;-69
2021/06/18 20:49:18;;;;;;;15.97;3.73;;;25.00;99.90;;;;;;20907876;28;20782;-70
2021/06/18 20:59:21;;;;;;;1.98;1.52;;;24.70;99.90;;;;;;20908663;28;20202;-68
2021/06/18 21:09:27;;;;;;;1.45;1.30;;;24.50;99.90;;;;;;20892046;28;20232;-69
2021/06/18 21:19:31;;;;;;;1.30;1.20;;;24.50;99.90;;;;;;20905730;28;20207;-68
2021/06/18 21:29:37;;;;;;;2.50;1.10;;;24.30;99.90;;;;;;20906308;28;20248;-70
2021/06/18 21:39:40;;;;;;;2.63;0.65;;;24.30;99.90;;;;;;20902033;28;20244;-67
2021/06/18 21:49:46;;;;;;;1.52;1.42;;;24.40;99.90;;;;;;20903204;28;20307;-67
2021/06/18 21:59:50;;;;;;;1.73;1.63;;;24.30;99.90;;;;;;20902945;28;20230;-69
2021/06/18 22:09:55;;;;;;;3.17;1.92;;;24.30;99.90;;;;;;20901312;28;20228;-70
2021/06/18 22:19:58;;;;;;;1.20;1.00;;;24.40;99.90;;;;;;20888566;28;20285;-70
2021/06/18 22:30:05;;;;;;;1.17;1.02;;;24.30;99.90;;;;;;20857207;28;20232;-68
2021/06/18 22:40:10;;;;;;;1.60;1.50;;;24.20;99.90;;;;;;20860383;28;20688;-68
2021/06/18 22:50:19;;;;;;;1.05;0.90;;;24.00;99.90;;;;;;20862564;28;20268;-68
2021/06/18 23:00:36;;;;;;;1.42;1.20;;;23.70;99.90;;;;;;20822644;28;20690;-69
2021/06/18 23:10:42;;;;;;;12.70;2.17;;;23.70;99.90;;;;;;20817216;28;20194;-68
2021/06/18 23:20:46;;;;;;;2.37;1.87;;;23.80;99.90;;;;;;20830899;28;20201;-70
2021/06/18 23:31:01;;;;;;;3.77;1.00;;;23.80;99.90;;;;;;20898795;28;20272;-70
2021/06/18 23:41:04;;;;;;;7.13;1.53;;;23.40;99.90;;;;;;20901043;28;20241;-71
2021/06/18 23:51:09;;;;;;;0.73;0.70;;;23.30;99.90;;;;;;20914921;28;20670;-69
